sensor_id;sensor_type;location;lat;lon;timestamp;P1;durP1;ratioP1;P2;durP2;ratioP2
29214;SDS011;16252;49.816;7.964;2023-02-04T00:00:12;8.23;;;2.20;;
29214;SDS011;16252;49.816;7.964;2023-02-04T00:02:40;9.15;;;2.08;;
29214;SDS011;16252;49.816;7.964;2023-02-04T00:05:05;6.18;;;1.95;;
29214;SDS011;16252;49.816;7.964;2023-02-04T00:07:32;4.10;;;1.60;;
29214;SDS011;16252;49.816;7.964;2023-02-04T00:09:57;5.63;;;1.70;;
29214;SDS011;16252;49.816;7.964;2023-02-04T00:12:23;3.60;;;1.60;;
29214;SDS011;16252;49.816;7.964;2023-02-04T00:14:48;3.63;;;1.63;;
29214;SDS011;16252;49.816;7.964;2023-02-04T00:17:14;6.38;;;1.65;;
29214;SDS011;16252;49.816;7.964;2023-02-04T00:19:39;3.90;;;1.48;;
29214;SDS011;16252;49.816;7.964;2023-02-04T00:22:05;6.30;;;1.75;;
29214;SDS011;16252;49.816;7.964;2023-02-04T00:24:32;5.32;;;1.60;;
29214;SDS011;16252;49.816;7.964;2023-02-04T00:27:00;6.75;;;1.75;;
29214;SDS011;16252;49.816;7.964;2023-02-04T00:29:26;3.85;;;1.17;;
29214;SDS011;16252;49.816;7.964;2023-02-04T00:31:51;5.00;;;1.45;;
29214;SDS011;16252;49.816;7.964;2023-02-04T00:34:17;7.50;;;1.85;;
29214;SDS011;16252;49.816;7.964;2023-02-04T00:36:42;5.05;;;1.92;;
29214;SDS011;16252;49.816;7.964;2023-02-04T00:39:08;5.60;;;1.77;;
29214;SDS011;16252;49.816;7.964;2023-02-04T00:41:33;5.68;;;1.83;;
29214;SDS011;16252;49.816;7.964;2023-02-04T00:43:58;5.18;;;1.63;;
29214;SDS011;16252;49.816;7.964;2023-02-04T00:46:23;4.20;;;1.50;;
29214;SDS011;16252;49.816;7.964;2023-02-04T00:48:49;4.57;;;1.50;;
29214;SDS011;16252;49.816;7.964;2023-02-04T00:51:14;5.80;;;2.35;;
29214;SDS011;16252;49.816;7.964;2023-02-04T00:53:39;5.88;;;1.67;;
29214;SDS011;16252;49.816;7.964;2023-02-04T00:56:04;4.68;;;1.40;;
29214;SDS011;16252;49.816;7.964;2023-02-04T00:58:30;4.90;;;1.40;;
29214;SDS011;16252;49.816;7.964;2023-02-04T01:00:55;3.50;;;1.30;;
29214;SDS011;16252;49.816;7.964;2023-02-04T01:03:21;4.88;;;1.38;;
29214;SDS011;16252;49.816;7.964;2023-02-04T01:05:46;5.60;;;1.42;;
29214;SDS011;16252;49.816;7.964;2023-02-04T01:08:11;4.82;;;1.60;;
29214;SDS011;16252;49.816;7.964;2023-02-04T01:10:37;3.03;;;1.30;;
29214;SDS011;16252;49.816;7.964;2023-02-04T01:13:02;5.15;;;1.23;;
29214;SDS011;16252;49.816;7.964;2023-02-04T01:15:28;4.20;;;1.30;;
29214;SDS011;16252;49.816;7.964;2023-02-04T01:17:53;5.72;;;1.70;;
29214;SDS011;16252;49.816;7.964;2023-02-04T01:20:18;5.85;;;2.10;;
29214;SDS011;16252;49.816;7.964;2023-02-04T01:22:43;6.70;;;1.98;;
29214;SDS011;16252;49.816;7.964;2023-02-04T01:25:09;5.88;;;1.65;;
29214;SDS011;16252;49.816;7.964;2023-02-04T01:27:34;7.07;;;1.58;;
29214;SDS011;16252;49.816;7.964;2023-02-04T01:29:59;4.00;;;1.73;;
29214;SDS011;16252;49.816;7.964;2023-02-04T01:32:24;9.30;;;1.60;;
29214;SDS011;16252;49.816;7.964;2023-02-04T01:34:50;6.10;;;1.75;;
29214;SDS011;16252;49.816;7.964;2023-02-04T01:37:15;6.72;;;1.85;;
29214;SDS011;16252;49.816;7.964;2023-02-04T01:39:41;5.60;;;1.60;;
29214;SDS011;16252;49.816;7.964;2023-02-04T01:42:07;6.40;;;2.05;;
29214;SDS011;16252;49.816;7.964;2023-02-04T01:44:33;8.23;;;1.92;;
29214;SDS011;16252;49.816;7.964;2023-02-04T01:46:58;13.00;;;2.50;;
29214;SDS011;16252;49.816;7.964;2023-02-04T01:49:24;5.15;;;1.90;;
29214;SDS011;16252;49.816;7.964;2023-02-04T01:51:49;5.25;;;1.95;;
29214;SDS011;16252;49.816;7.964;2023-02-04T01:54:15;4.28;;;1.63;;
29214;SDS011;16252;49.816;7.964;2023-02-04T01:56:44;3.78;;;1.77;;
29214;SDS011;16252;49.816;7.964;2023-02-04T01:59:12;4.10;;;1.97;;
29214;SDS011;16252;49.816;7.964;2023-02-04T02:01:40;5.28;;;2.00;;
29214;SDS011;16252;49.816;7.964;2023-02-04T02:04:08;4.70;;;1.58;;
29214;SDS011;16252;49.816;7.964;2023-02-04T02:06:35;3.33;;;1.50;;
29214;SDS011;16252;49.816;7.964;2023-02-04T02:09:03;6.93;;;1.75;;
29214;SDS011;16252;49.816;7.964;2023-02-04T02:11:29;6.35;;;1.90;;
29214;SDS011;16252;49.816;7.964;2023-02-04T02:13:54;5.15;;;1.83;;
29214;SDS011;16252;49.816;7.964;2023-02-04T02:16:20;4.10;;;1.65;;
29214;SDS011;16252;49.816;7.964;2023-02-04T02:18:45;4.65;;;1.73;;
29214;SDS011;16252;49.816;7.964;2023-02-04T02:21:11;5.50;;;1.60;;
29214;SDS011;16252;49.816;7.964;2023-02-04T02:23:45;5.28;;;1.60;;
29214;SDS011;16252;49.816;7.964;2023-02-04T02:26:12;5.03;;;1.60;;
29214;SDS011;16252;49.816;7.964;2023-02-04T02:28:40;2.63;;;1.08;;
29214;SDS011;16252;49.816;7.964;2023-02-04T02:31:06;6.60;;;1.77;;
29214;SDS011;16252;49.816;7.964;2023-02-04T02:33:32;5.65;;;1.65;;
29214;SDS011;16252;49.816;7.964;2023-02-04T02:35:57;6.75;;;1.92;;
29214;SDS011;16252;49.816;7.964;2023-02-04T02:38:23;5.35;;;1.75;;
29214;SDS011;16252;49.816;7.964;2023-02-04T02:40:48;5.00;;;1.58;;
29214;SDS011;16252;49.816;7.964;2023-02-04T02:43:16;4.03;;;1.30;;
29214;SDS011;16252;49.816;7.964;2023-02-04T02:45:45;10.50;;;1.50;;
29214;SDS011;16252;49.816;7.964;2023-02-04T02:48:11;4.32;;;1.58;;
29214;SDS011;16252;49.816;7.964;2023-02-04T02:50:36;4.32;;;1.60;;
29214;SDS011;16252;49.816;7.964;2023-02-04T02:53:03;3.50;;;1.35;;
29214;SDS011;16252;49.816;7.964;2023-02-04T02:55:29;3.45;;;1.20;;
29214;SDS011;16252;49.816;7.964;2023-02-04T02:57:55;5.95;;;1.35;;
29214;SDS011;16252;49.816;7.964;2023-02-04T03:00:22;2.45;;;1.35;;
29214;SDS011;16252;49.816;7.964;2023-02-04T03:02:52;6.68;;;1.35;;
29214;SDS011;16252;49.816;7.964;2023-02-04T03:05:22;3.22;;;1.40;;
29214;SDS011;16252;49.816;7.964;2023-02-04T03:07:48;4.75;;;1.23;;
29214;SDS011;16252;49.816;7.964;2023-02-04T03:10:15;4.78;;;1.20;;
29214;SDS011;16252;49.816;7.964;2023-02-04T03:12:41;4.75;;;1.77;;
29214;SDS011;16252;49.816;7.964;2023-02-04T03:15:07;3.50;;;1.45;;
29214;SDS011;16252;49.816;7.964;2023-02-04T03:17:32;2.53;;;1.00;;
29214;SDS011;16252;49.816;7.964;2023-02-04T03:19:58;3.83;;;1.00;;
29214;SDS011;16252;49.816;7.964;2023-02-04T03:22:24;3.72;;;1.15;;
29214;SDS011;16252;49.816;7.964;2023-02-04T03:24:50;2.63;;;1.40;;
29214;SDS011;16252;49.816;7.964;2023-02-04T03:27:15;5.07;;;1.20;;
29214;SDS011;16252;49.816;7.964;2023-02-04T03:29:41;2.67;;;1.20;;
29214;SDS011;16252;49.816;7.964;2023-02-04T03:32:08;3.95;;;1.20;;
29214;SDS011;16252;49.816;7.964;2023-02-04T03:34:33;2.47;;;0.98;;
29214;SDS011;16252;49.816;7.964;2023-02-04T03:36:58;3.40;;;1.20;;
29214;SDS011;16252;49.816;7.964;2023-02-04T03:39:23;5.40;;;1.38;;
29214;SDS011;16252;49.816;7.964;2023-02-04T03:41:49;3.15;;;1.13;;
29214;SDS011;16252;49.816;7.964;2023-02-04T03:44:14;3.75;;;1.10;;
29214;SDS011;16252;49.816;7.964;2023-02-04T03:46:39;5.45;;;1.63;;
29214;SDS011;16252;49.816;7.964;2023-02-04T03:49:04;4.13;;;1.35;;
29214;SDS011;16252;49.816;7.964;2023-02-04T03:51:30;2.67;;;1.45;;
29214;SDS011;16252;49.816;7.964;2023-02-04T03:53:55;1.90;;;1.17;;
29214;SDS011;16252;49.816;7.964;2023-02-04T03:56:20;2.75;;;1.23;;
29214;SDS011;16252;49.816;7.964;2023-02-04T03:58:45;3.85;;;1.23;;
29214;SDS011;16252;49.816;7.964;2023-02-04T04:01:11;2.25;;;1.42;;
29214;SDS011;16252;49.816;7.964;2023-02-04T04:03:36;3.75;;;1.40;;
29214;SDS011;16252;49.816;7.964;2023-02-04T04:06:01;3.53;;;1.33;;
29214;SDS011;16252;49.816;7.964;2023-02-04T04:08:29;4.28;;;1.23;;
29214;SDS011;16252;49.816;7.964;2023-02-04T04:10:54;3.17;;;1.40;;
29214;SDS011;16252;49.816;7.964;2023-02-04T04:13:19;4.10;;;1.30;;
29214;SDS011;16252;49.816;7.964;2023-02-04T04:15:44;2.42;;;1.13;;
29214;SDS011;16252;49.816;7.964;2023-02-04T04:18:10;2.28;;;1.30;;
29214;SDS011;16252;49.816;7.964;2023-02-04T04:20:35;3.25;;;1.20;;
29214;SDS011;16252;49.816;7.964;2023-02-04T04:23:00;3.50;;;1.38;;
29214;SDS011;16252;49.816;7.964;2023-02-04T04:25:25;5.30;;;1.50;;
29214;SDS011;16252;49.816;7.964;2023-02-04T04:27:51;3.80;;;1.50;;
29214;SDS011;16252;49.816;7.964;2023-02-04T04:30:16;1.95;;;1.20;;
29214;SDS011;16252;49.816;7.964;2023-02-04T04:32:42;1.80;;;1.17;;
29214;SDS011;16252;49.816;7.964;2023-02-04T04:35:07;2.00;;;1.23;;
29214;SDS011;16252;49.816;7.964;2023-02-04T04:37:32;2.28;;;1.17;;
29214;SDS011;16252;49.816;7.964;2023-02-04T04:39:59;2.70;;;1.17;;
29214;SDS011;16252;49.816;7.964;2023-02-04T04:42:25;3.60;;;1.45;;
29214;SDS011;16252;49.816;7.964;2023-02-04T04:44:50;1.70;;;1.25;;
29214;SDS011;16252;49.816;7.964;2023-02-04T04:47:15;3.17;;;1.48;;
29214;SDS011;16252;49.816;7.964;2023-02-04T04:49:41;4.95;;;1.52;;
29214;SDS011;16252;49.816;7.964;2023-02-04T04:52:06;3.13;;;1.40;;
29214;SDS011;16252;49.816;7.964;2023-02-04T04:54:31;3.00;;;1.10;;
29214;SDS011;16252;49.816;7.964;2023-02-04T04:56:56;2.58;;;1.20;;
29214;SDS011;16252;49.816;7.964;2023-02-04T04:59:22;4.90;;;1.83;;
29214;SDS011;16252;49.816;7.964;2023-02-04T05:01:47;2.53;;;1.25;;
29214;SDS011;16252;49.816;7.964;2023-02-04T05:04:12;3.97;;;1.73;;
29214;SDS011;16252;49.816;7.964;2023-02-04T05:06:37;3.55;;;1.55;;
29214;SDS011;16252;49.816;7.964;2023-02-04T05:09:03;4.82;;;1.42;;
29214;SDS011;16252;49.816;7.964;2023-02-04T05:11:28;3.65;;;1.50;;
29214;SDS011;16252;49.816;7.964;2023-02-04T05:13:54;3.95;;;1.20;;
29214;SDS011;16252;49.816;7.964;2023-02-04T05:16:19;3.35;;;1.35;;
29214;SDS011;16252;49.816;7.964;2023-02-04T05:18:44;3.72;;;1.40;;
29214;SDS011;16252;49.816;7.964;2023-02-04T05:21:09;3.08;;;1.30;;
29214;SDS011;16252;49.816;7.964;2023-02-04T05:23:35;5.47;;;1.50;;
29214;SDS011;16252;49.816;7.964;2023-02-04T05:26:00;2.95;;;1.70;;
29214;SDS011;16252;49.816;7.964;2023-02-04T05:28:25;4.45;;;1.70;;
29214;SDS011;16252;49.816;7.964;2023-02-04T05:30:51;4.53;;;2.05;;
29214;SDS011;16252;49.816;7.964;2023-02-04T05:33:16;3.35;;;1.88;;
29214;SDS011;16252;49.816;7.964;2023-02-04T05:35:42;2.45;;;1.52;;
29214;SDS011;16252;49.816;7.964;2023-02-04T05:38:07;5.25;;;1.88;;
29214;SDS011;16252;49.816;7.964;2023-02-04T05:40:32;2.00;;;1.40;;
29214;SDS011;16252;49.816;7.964;2023-02-04T05:42:58;3.42;;;1.77;;
29214;SDS011;16252;49.816;7.964;2023-02-04T05:45:23;3.05;;;1.70;;
29214;SDS011;16252;49.816;7.964;2023-02-04T05:47:48;3.65;;;2.20;;
29214;SDS011;16252;49.816;7.964;2023-02-04T05:50:14;3.00;;;1.48;;
29214;SDS011;16252;49.816;7.964;2023-02-04T05:52:39;2.45;;;1.55;;
29214;SDS011;16252;49.816;7.964;2023-02-04T05:55:05;3.30;;;1.38;;
29214;SDS011;16252;49.816;7.964;2023-02-04T05:57:31;5.72;;;1.55;;
29214;SDS011;16252;49.816;7.964;2023-02-04T05:59:56;3.85;;;1.70;;
29214;SDS011;16252;49.816;7.964;2023-02-04T06:02:21;2.72;;;1.40;;
29214;SDS011;16252;49.816;7.964;2023-02-04T06:04:47;3.47;;;1.73;;
29214;SDS011;16252;49.816;7.964;2023-02-04T06:07:12;6.30;;;2.03;;
29214;SDS011;16252;49.816;7.964;2023-02-04T06:09:37;5.40;;;2.08;;
29214;SDS011;16252;49.816;7.964;2023-02-04T06:12:03;3.67;;;1.40;;
29214;SDS011;16252;49.816;7.964;2023-02-04T06:14:28;4.72;;;1.73;;
29214;SDS011;16252;49.816;7.964;2023-02-04T06:16:53;4.05;;;2.08;;
29214;SDS011;16252;49.816;7.964;2023-02-04T06:19:19;2.90;;;1.83;;
29214;SDS011;16252;49.816;7.964;2023-02-04T06:21:44;6.72;;;2.20;;
29214;SDS011;16252;49.816;7.964;2023-02-04T06:24:09;5.80;;;2.05;;
29214;SDS011;16252;49.816;7.964;2023-02-04T06:26:34;7.30;;;2.50;;
29214;SDS011;16252;49.816;7.964;2023-02-04T06:29:00;6.80;;;2.58;;
29214;SDS011;16252;49.816;7.964;2023-02-04T06:31:25;4.50;;;2.13;;
29214;SDS011;16252;49.816;7.964;2023-02-04T06:33:50;5.43;;;2.10;;
29214;SDS011;16252;49.816;7.964;2023-02-04T06:36:16;5.93;;;2.20;;
29214;SDS011;16252;49.816;7.964;2023-02-04T06:38:41;7.75;;;2.15;;
29214;SDS011;16252;49.816;7.964;2023-02-04T06:41:06;8.23;;;2.45;;
29214;SDS011;16252;49.816;7.964;2023-02-04T06:43:31;5.32;;;2.35;;
29214;SDS011;16252;49.816;7.964;2023-02-04T06:45:57;7.40;;;2.45;;
29214;SDS011;16252;49.816;7.964;2023-02-04T06:48:22;5.90;;;1.95;;
29214;SDS011;16252;49.816;7.964;2023-02-04T06:50:47;5.75;;;1.98;;
29214;SDS011;16252;49.816;7.964;2023-02-04T06:53:12;8.40;;;2.40;;
29214;SDS011;16252;49.816;7.964;2023-02-04T06:55:38;9.63;;;2.90;;
29214;SDS011;16252;49.816;7.964;2023-02-04T06:58:03;7.13;;;2.97;;
29214;SDS011;16252;49.816;7.964;2023-02-04T07:00:28;5.30;;;2.65;;
29214;SDS011;16252;49.816;7.964;2023-02-04T07:02:55;5.95;;;3.00;;
29214;SDS011;16252;49.816;7.964;2023-02-04T07:05:21;5.85;;;3.08;;
29214;SDS011;16252;49.816;7.964;2023-02-04T07:07:47;8.45;;;2.53;;
29214;SDS011;16252;49.816;7.964;2023-02-04T07:10:12;8.07;;;3.28;;
29214;SDS011;16252;49.816;7.964;2023-02-04T07:12:38;8.32;;;3.47;;
29214;SDS011;16252;49.816;7.964;2023-02-04T07:15:03;8.57;;;3.55;;
29214;SDS011;16252;49.816;7.964;2023-02-04T07:17:29;10.48;;;4.25;;
29214;SDS011;16252;49.816;7.964;2023-02-04T07:19:54;11.65;;;3.63;;
29214;SDS011;16252;49.816;7.964;2023-02-04T07:22:19;12.23;;;4.13;;
29214;SDS011;16252;49.816;7.964;2023-02-04T07:24:44;8.07;;;2.88;;
29214;SDS011;16252;49.816;7.964;2023-02-04T07:27:10;8.50;;;3.20;;
29214;SDS011;16252;49.816;7.964;2023-02-04T07:29:35;8.70;;;2.75;;
29214;SDS011;16252;49.816;7.964;2023-02-04T07:32:00;6.85;;;3.17;;
29214;SDS011;16252;49.816;7.964;2023-02-04T07:34:26;8.15;;;3.08;;
29214;SDS011;16252;49.816;7.964;2023-02-04T07:36:51;7.45;;;2.97;;
29214;SDS011;16252;49.816;7.964;2023-02-04T07:39:16;5.25;;;2.67;;
29214;SDS011;16252;49.816;7.964;2023-02-04T07:41:41;10.23;;;2.90;;
29214;SDS011;16252;49.816;7.964;2023-02-04T07:44:07;9.40;;;2.65;;
29214;SDS011;16252;49.816;7.964;2023-02-04T07:46:32;8.75;;;3.08;;
29214;SDS011;16252;49.816;7.964;2023-02-04T07:48:57;11.65;;;3.08;;
29214;SDS011;16252;49.816;7.964;2023-02-04T07:51:22;7.40;;;2.90;;
29214;SDS011;16252;49.816;7.964;2023-02-04T07:53:48;9.52;;;3.45;;
29214;SDS011;16252;49.816;7.964;2023-02-04T07:56:13;12.30;;;3.53;;
29214;SDS011;16252;49.816;7.964;2023-02-04T07:58:38;12.30;;;3.20;;
29214;SDS011;16252;49.816;7.964;2023-02-04T08:01:03;6.88;;;2.90;;
29214;SDS011;16252;49.816;7.964;2023-02-04T08:03:29;8.32;;;2.75;;
29214;SDS011;16252;49.816;7.964;2023-02-04T08:05:54;7.78;;;3.03;;
29214;SDS011;16252;49.816;7.964;2023-02-04T08:08:20;9.70;;;3.53;;
29214;SDS011;16252;49.816;7.964;2023-02-04T08:10:45;10.20;;;3.63;;
29214;SDS011;16252;49.816;7.964;2023-02-04T08:13:10;10.25;;;3.25;;
29214;SDS011;16252;49.816;7.964;2023-02-04T08:15:36;9.77;;;2.92;;
29214;SDS011;16252;49.816;7.964;2023-02-04T08:18:01;9.63;;;3.30;;
29214;SDS011;16252;49.816;7.964;2023-02-04T08:20:26;9.75;;;3.13;;
29214;SDS011;16252;49.816;7.964;2023-02-04T08:22:52;10.73;;;3.58;;
29214;SDS011;16252;49.816;7.964;2023-02-04T08:25:17;11.77;;;3.95;;
29214;SDS011;16252;49.816;7.964;2023-02-04T08:27:43;13.27;;;3.75;;
29214;SDS011;16252;49.816;7.964;2023-02-04T08:30:08;11.52;;;3.42;;
29214;SDS011;16252;49.816;7.964;2023-02-04T08:32:34;10.90;;;3.72;;
29214;SDS011;16252;49.816;7.964;2023-02-04T08:34:59;11.07;;;3.60;;
29214;SDS011;16252;49.816;7.964;2023-02-04T08:37:25;12.90;;;3.88;;
29214;SDS011;16252;49.816;7.964;2023-02-04T08:39:50;14.38;;;4.28;;
29214;SDS011;16252;49.816;7.964;2023-02-04T08:42:15;8.68;;;3.40;;
29214;SDS011;16252;49.816;7.964;2023-02-04T08:44:41;6.10;;;3.10;;
29214;SDS011;16252;49.816;7.964;2023-02-04T08:47:07;10.93;;;4.20;;
29214;SDS011;16252;49.816;7.964;2023-02-04T08:49:32;11.10;;;3.70;;
29214;SDS011;16252;49.816;7.964;2023-02-04T08:51:58;13.00;;;5.85;;
29214;SDS011;16252;49.816;7.964;2023-02-04T08:54:23;27.13;;;10.05;;
29214;SDS011;16252;49.816;7.964;2023-02-04T08:56:50;44.40;;;20.80;;
29214;SDS011;16252;49.816;7.964;2023-02-04T08:59:15;46.17;;;21.02;;
29214;SDS011;16252;49.816;7.964;2023-02-04T09:01:40;57.03;;;26.88;;
29214;SDS011;16252;49.816;7.964;2023-02-04T09:04:06;48.83;;;24.00;;
29214;SDS011;16252;49.816;7.964;2023-02-04T09:06:31;53.42;;;23.77;;
29214;SDS011;16252;49.816;7.964;2023-02-04T09:08:56;38.13;;;19.58;;
29214;SDS011;16252;49.816;7.964;2023-02-04T09:11:22;39.67;;;18.42;;
29214;SDS011;16252;49.816;7.964;2023-02-04T09:13:47;34.80;;;17.95;;
29214;SDS011;16252;49.816;7.964;2023-02-04T09:16:12;33.22;;;15.10;;
29214;SDS011;16252;49.816;7.964;2023-02-04T09:18:38;25.85;;;12.10;;
29214;SDS011;16252;49.816;7.964;2023-02-04T09:21:03;22.80;;;11.55;;
29214;SDS011;16252;49.816;7.964;2023-02-04T09:23:29;14.27;;;8.40;;
29214;SDS011;16252;49.816;7.964;2023-02-04T09:25:54;17.55;;;7.70;;
29214;SDS011;16252;49.816;7.964;2023-02-04T09:28:19;15.63;;;6.63;;
29214;SDS011;16252;49.816;7.964;2023-02-04T09:30:45;14.85;;;6.10;;
29214;SDS011;16252;49.816;7.964;2023-02-04T09:33:11;12.75;;;5.25;;
29214;SDS011;16252;49.816;7.964;2023-02-04T09:35:38;9.15;;;4.70;;
29214;SDS011;16252;49.816;7.964;2023-02-04T09:38:03;14.38;;;5.40;;
29214;SDS011;16252;49.816;7.964;2023-02-04T09:40:32;19.75;;;7.65;;
29214;SDS011;16252;49.816;7.964;2023-02-04T09:45:29;20.58;;;10.63;;
29214;SDS011;16252;49.816;7.964;2023-02-04T09:47:58;22.85;;;9.75;;
29214;SDS011;16252;49.816;7.964;2023-02-04T09:50:26;15.98;;;8.02;;
29214;SDS011;16252;49.816;7.964;2023-02-04T09:52:56;15.15;;;6.50;;
29214;SDS011;16252;49.816;7.964;2023-02-04T09:55:27;12.43;;;5.78;;
29214;SDS011;16252;49.816;7.964;2023-02-04T09:57:55;18.27;;;6.03;;
29214;SDS011;16252;49.816;7.964;2023-02-04T10:00:22;11.88;;;5.78;;
29214;SDS011;16252;49.816;7.964;2023-02-04T10:02:49;14.73;;;5.03;;
29214;SDS011;16252;49.816;7.964;2023-02-04T10:05:15;15.48;;;4.80;;
29214;SDS011;16252;49.816;7.964;2023-02-04T10:07:43;11.68;;;3.95;;
29214;SDS011;16252;49.816;7.964;2023-02-04T10:10:17;13.80;;;3.65;;
29214;SDS011;16252;49.816;7.964;2023-02-04T10:12:44;11.68;;;4.50;;
29214;SDS011;16252;49.816;7.964;2023-02-04T10:15:15;11.73;;;4.20;;
29214;SDS011;16252;49.816;7.964;2023-02-04T10:17:45;14.88;;;4.03;;
29214;SDS011;16252;49.816;7.964;2023-02-04T10:20:16;11.27;;;3.78;;
29214;SDS011;16252;49.816;7.964;2023-02-04T10:22:44;11.52;;;4.10;;
29214;SDS011;16252;49.816;7.964;2023-02-04T10:25:14;13.80;;;3.92;;
29214;SDS011;16252;49.816;7.964;2023-02-04T10:27:47;12.30;;;4.05;;
29214;SDS011;16252;49.816;7.964;2023-02-04T10:30:18;8.80;;;3.75;;
29214;SDS011;16252;49.816;7.964;2023-02-04T10:32:45;10.02;;;4.15;;
29214;SDS011;16252;49.816;7.964;2023-02-04T10:35:12;9.98;;;3.80;;
29214;SDS011;16252;49.816;7.964;2023-02-04T10:37:39;15.88;;;3.55;;
29214;SDS011;16252;49.816;7.964;2023-02-04T10:40:04;13.45;;;3.70;;
29214;SDS011;16252;49.816;7.964;2023-02-04T10:42:30;9.73;;;3.58;;
29214;SDS011;16252;49.816;7.964;2023-02-04T10:44:56;15.98;;;3.28;;
29214;SDS011;16252;49.816;7.964;2023-02-04T10:47:23;12.05;;;3.45;;
29214;SDS011;16252;49.816;7.964;2023-02-04T10:49:54;12.35;;;3.50;;
29214;SDS011;16252;49.816;7.964;2023-02-04T10:52:35;11.70;;;3.58;;
29214;SDS011;16252;49.816;7.964;2023-02-04T10:55:03;9.10;;;3.80;;
29214;SDS011;16252;49.816;7.964;2023-02-04T10:57:36;17.27;;;4.60;;
29214;SDS011;16252;49.816;7.964;2023-02-04T11:00:03;11.52;;;3.45;;
29214;SDS011;16252;49.816;7.964;2023-02-04T11:05:18;7.95;;;3.60;;
29214;SDS011;16252;49.816;7.964;2023-02-04T11:07:46;12.48;;;3.10;;
29214;SDS011;16252;49.816;7.964;2023-02-04T11:10:20;9.45;;;2.88;;
29214;SDS011;16252;49.816;7.964;2023-02-04T11:18:06;14.95;;;3.08;;
29214;SDS011;16252;49.816;7.964;2023-02-04T11:20:33;8.18;;;2.70;;
29214;SDS011;16252;49.816;7.964;2023-02-04T11:26:08;11.85;;;2.45;;
29214;SDS011;16252;49.816;7.964;2023-02-04T11:29:24;13.57;;;3.07;;
29214;SDS011;16252;49.816;7.964;2023-02-04T11:33:48;7.37;;;2.53;;
29214;SDS011;16252;49.816;7.964;2023-02-04T11:36:15;9.32;;;2.70;;
29214;SDS011;16252;49.816;7.964;2023-02-04T11:38:48;12.15;;;3.10;;
29214;SDS011;16252;49.816;7.964;2023-02-04T11:41:21;8.85;;;2.90;;
29214;SDS011;16252;49.816;7.964;2023-02-04T11:43:49;8.65;;;3.00;;
29214;SDS011;16252;49.816;7.964;2023-02-04T11:46:16;10.60;;;3.38;;
29214;SDS011;16252;49.816;7.964;2023-02-04T11:48:42;12.98;;;2.85;;
29214;SDS011;16252;49.816;7.964;2023-02-04T11:51:10;11.23;;;2.85;;
29214;SDS011;16252;49.816;7.964;2023-02-04T11:53:38;15.88;;;3.05;;
29214;SDS011;16252;49.816;7.964;2023-02-04T11:56:03;7.93;;;2.83;;
29214;SDS011;16252;49.816;7.964;2023-02-04T11:58:29;10.07;;;3.33;;
29214;SDS011;16252;49.816;7.964;2023-02-04T12:00:55;10.57;;;2.88;;
29214;SDS011;16252;49.816;7.964;2023-02-04T12:03:25;7.72;;;2.55;;
29214;SDS011;16252;49.816;7.964;2023-02-04T12:06:00;6.82;;;2.00;;
29214;SDS011;16252;49.816;7.964;2023-02-04T12:08:29;9.20;;;2.80;;
29214;SDS011;16252;49.816;7.964;2023-02-04T12:11:00;7.35;;;1.90;;
29214;SDS011;16252;49.816;7.964;2023-02-04T12:13:28;6.35;;;2.17;;
29214;SDS011;16252;49.816;7.964;2023-02-04T12:15:57;6.45;;;2.72;;
29214;SDS011;16252;49.816;7.964;2023-02-04T12:18:24;12.13;;;3.00;;
29214;SDS011;16252;49.816;7.964;2023-02-04T12:20:53;7.82;;;2.40;;
29214;SDS011;16252;49.816;7.964;2023-02-04T12:23:19;5.30;;;1.90;;
29214;SDS011;16252;49.816;7.964;2023-02-04T12:25:45;7.72;;;2.17;;
29214;SDS011;16252;49.816;7.964;2023-02-04T12:28:10;8.90;;;2.50;;
29214;SDS011;16252;49.816;7.964;2023-02-04T12:30:35;6.88;;;2.50;;
29214;SDS011;16252;49.816;7.964;2023-02-04T12:33:00;8.57;;;2.40;;
29214;SDS011;16252;49.816;7.964;2023-02-04T12:35:26;8.23;;;2.40;;
29214;SDS011;16252;49.816;7.964;2023-02-04T12:37:51;8.07;;;2.13;;
29214;SDS011;16252;49.816;7.964;2023-02-04T12:40:17;16.48;;;2.50;;
29214;SDS011;16252;49.816;7.964;2023-02-04T12:42:44;9.18;;;2.47;;
29214;SDS011;16252;49.816;7.964;2023-02-04T12:45:10;8.48;;;2.40;;
29214;SDS011;16252;49.816;7.964;2023-02-04T12:47:36;4.88;;;1.95;;
29214;SDS011;16252;49.816;7.964;2023-02-04T12:50:03;9.20;;;2.30;;
29214;SDS011;16252;49.816;7.964;2023-02-04T12:52:29;11.88;;;2.65;;
29214;SDS011;16252;49.816;7.964;2023-02-04T12:54:54;7.43;;;2.15;;
29214;SDS011;16252;49.816;7.964;2023-02-04T12:57:19;8.40;;;2.42;;
29214;SDS011;16252;49.816;7.964;2023-02-04T12:59:45;10.55;;;2.40;;
29214;SDS011;16252;49.816;7.964;2023-02-04T13:02:11;10.30;;;2.38;;
29214;SDS011;16252;49.816;7.964;2023-02-04T13:04:36;7.07;;;2.30;;
29214;SDS011;16252;49.816;7.964;2023-02-04T13:07:02;5.72;;;2.45;;
29214;SDS011;16252;49.816;7.964;2023-02-04T13:09:27;6.57;;;2.70;;
29214;SDS011;16252;49.816;7.964;2023-02-04T13:11:52;5.82;;;2.40;;
29214;SDS011;16252;49.816;7.964;2023-02-04T13:14:18;11.05;;;3.00;;
29214;SDS011;16252;49.816;7.964;2023-02-04T13:16:43;10.10;;;3.65;;
29214;SDS011;16252;49.816;7.964;2023-02-04T13:19:08;9.63;;;2.80;;
29214;SDS011;16252;49.816;7.964;2023-02-04T13:21:33;8.43;;;2.83;;
29214;SDS011;16252;49.816;7.964;2023-02-04T13:23:59;10.05;;;2.78;;
29214;SDS011;16252;49.816;7.964;2023-02-04T13:26:25;7.25;;;2.30;;
29214;SDS011;16252;49.816;7.964;2023-02-04T13:28:50;8.80;;;2.53;;
29214;SDS011;16252;49.816;7.964;2023-02-04T13:31:15;10.93;;;2.42;;
29214;SDS011;16252;49.816;7.964;2023-02-04T13:33:40;11.75;;;2.50;;
29214;SDS011;16252;49.816;7.964;2023-02-04T13:36:06;7.07;;;2.22;;
29214;SDS011;16252;49.816;7.964;2023-02-04T13:38:31;10.05;;;2.50;;
29214;SDS011;16252;49.816;7.964;2023-02-04T13:40:56;10.02;;;2.58;;
29214;SDS011;16252;49.816;7.964;2023-02-04T13:43:22;8.20;;;2.40;;
29214;SDS011;16252;49.816;7.964;2023-02-04T13:45:47;6.63;;;2.03;;
29214;SDS011;16252;49.816;7.964;2023-02-04T13:48:13;6.93;;;2.63;;
29214;SDS011;16252;49.816;7.964;2023-02-04T13:50:39;8.93;;;2.72;;
29214;SDS011;16252;49.816;7.964;2023-02-04T13:53:05;8.48;;;2.70;;
29214;SDS011;16252;49.816;7.964;2023-02-04T13:55:30;9.80;;;2.17;;
29214;SDS011;16252;49.816;7.964;2023-02-04T13:57:55;6.53;;;2.10;;
29214;SDS011;16252;49.816;7.964;2023-02-04T14:00:21;12.65;;;2.58;;
29214;SDS011;16252;49.816;7.964;2023-02-04T14:02:46;14.27;;;2.67;;
29214;SDS011;16252;49.816;7.964;2023-02-04T14:05:12;12.50;;;2.55;;
29214;SDS011;16252;49.816;7.964;2023-02-04T14:07:38;10.27;;;2.47;;
29214;SDS011;16252;49.816;7.964;2023-02-04T14:10:03;6.65;;;2.42;;
29214;SDS011;16252;49.816;7.964;2023-02-04T14:12:29;9.55;;;2.55;;
29214;SDS011;16252;49.816;7.964;2023-02-04T14:14:54;10.85;;;2.63;;
29214;SDS011;16252;49.816;7.964;2023-02-04T14:17:19;10.23;;;2.55;;
29214;SDS011;16252;49.816;7.964;2023-02-04T14:19:44;7.65;;;2.42;;
29214;SDS011;16252;49.816;7.964;2023-02-04T14:22:10;6.75;;;1.85;;
29214;SDS011;16252;49.816;7.964;2023-02-04T14:24:35;11.52;;;2.45;;
29214;SDS011;16252;49.816;7.964;2023-02-04T14:27:02;10.68;;;2.38;;
29214;SDS011;16252;49.816;7.964;2023-02-04T14:29:31;9.10;;;2.17;;
29214;SDS011;16252;49.816;7.964;2023-02-04T14:31:56;10.98;;;2.63;;
29214;SDS011;16252;49.816;7.964;2023-02-04T14:34:22;10.00;;;2.55;;
29214;SDS011;16252;49.816;7.964;2023-02-04T14:36:47;9.13;;;2.30;;
29214;SDS011;16252;49.816;7.964;2023-02-04T14:39:12;7.05;;;2.35;;
29214;SDS011;16252;49.816;7.964;2023-02-04T14:41:37;8.80;;;2.65;;
29214;SDS011;16252;49.816;7.964;2023-02-04T14:44:03;9.90;;;2.63;;
29214;SDS011;16252;49.816;7.964;2023-02-04T14:46:28;12.27;;;2.38;;
29214;SDS011;16252;49.816;7.964;2023-02-04T14:48:53;7.60;;;2.78;;
29214;SDS011;16252;49.816;7.964;2023-02-04T14:51:18;12.95;;;2.50;;